createdAt,value
2023-01-07T00:01:33.497Z,5.43
2023-01-07T00:04:02.359Z,5.75
2023-01-07T00:06:33.342Z,4.30
2023-01-07T00:09:01.357Z,4.78
2023-01-07T00:11:31.388Z,5.45
2023-01-07T00:14:00.207Z,4.95
2023-01-07T00:16:29.691Z,4.13
2023-01-07T00:18:58.912Z,4.60
2023-01-07T00:21:28.049Z,4.22
2023-01-07T00:23:57.175Z,4.30
2023-01-07T00:26:25.838Z,3.92
2023-01-07T00:28:54.617Z,3.72
2023-01-07T00:31:26.771Z,3.63
2023-01-07T00:33:54.385Z,4.03
2023-01-07T00:36:23.484Z,3.28
2023-01-07T00:38:59.341Z,3.05
2023-01-07T00:41:26.512Z,3.10
2023-01-07T00:43:53.391Z,3.53
2023-01-07T00:46:21.216Z,3.95
2023-01-07T00:48:48.341Z,3.30
2023-01-07T00:51:16.867Z,3.13
2023-01-07T00:53:44.793Z,3.22
2023-01-07T00:56:13.400Z,2.80
2023-01-07T00:58:42.055Z,2.80
2023-01-07T01:01:10.352Z,2.60
2023-01-07T01:03:38.024Z,2.75
2023-01-07T01:06:07.672Z,2.80
2023-01-07T01:08:34.698Z,2.83
2023-01-07T01:11:06.503Z,2.58
2023-01-07T01:16:01.255Z,2.53
2023-01-07T01:18:28.258Z,2.58
2023-01-07T01:20:55.605Z,2.75
2023-01-07T01:23:22.850Z,2.95
2023-01-07T01:25:50.293Z,2.50
2023-01-07T01:28:17.419Z,2.75
2023-01-07T01:30:44.572Z,2.22
2023-01-07T01:33:12.576Z,2.55
2023-01-07T01:35:40.708Z,2.88
2023-01-07T01:38:07.877Z,2.70
2023-01-07T01:40:34.932Z,2.75
2023-01-07T01:43:02.392Z,2.70
2023-01-07T01:45:30.476Z,2.90
2023-01-07T01:48:06.800Z,3.50
2023-01-07T01:50:38.942Z,2.63
2023-01-07T01:53:18.719Z,2.22
2023-01-07T01:56:03.107Z,2.42
2023-01-07T01:58:41.098Z,2.38
2023-01-07T02:01:08.246Z,2.50
2023-01-07T02:03:38.262Z,2.08
2023-01-07T02:06:07.869Z,2.40
2023-01-07T02:08:35.023Z,2.20
2023-01-07T02:11:23.257Z,2.55
2023-01-07T02:13:55.496Z,2.25
2023-01-07T02:16:33.526Z,2.60
2023-01-07T02:19:37.787Z,2.25
2023-01-07T02:22:17.687Z,2.47
2023-01-07T02:25:02.017Z,2.30
2023-01-07T02:27:51.287Z,2.40
2023-01-07T02:30:24.342Z,2.13
2023-01-07T02:33:03.456Z,2.47
2023-01-07T02:36:04.725Z,2.28
2023-01-07T02:39:04.117Z,3.15
2023-01-07T02:41:56.909Z,2.40
2023-01-07T02:44:41.411Z,2.65
2023-01-07T02:47:28.608Z,2.40
2023-01-07T02:49:58.747Z,2.65
2023-01-07T02:52:32.190Z,2.35
2023-01-07T02:55:07.335Z,2.53
2023-01-07T02:57:49.457Z,2.67
2023-01-07T03:00:51.901Z,2.40
2023-01-07T03:03:42.557Z,3.80
2023-01-07T03:06:21.902Z,3.00
2023-01-07T03:09:01.071Z,3.22
2023-01-07T03:11:39.451Z,3.17
2023-01-07T03:14:16.556Z,3.15
2023-01-07T03:16:52.431Z,3.80
2023-01-07T03:19:25.425Z,3.72
2023-01-07T03:21:54.361Z,4.75
2023-01-07T03:24:23.483Z,4.00
2023-01-07T03:26:54.280Z,4.25
2023-01-07T03:29:22.657Z,4.97
2023-01-07T03:32:02.131Z,4.78
2023-01-07T03:34:30.612Z,4.68
2023-01-07T03:37:01.550Z,5.38
2023-01-07T03:39:31.269Z,5.22
2023-01-07T03:42:16.985Z,5.57
2023-01-07T03:44:44.196Z,5.22
2023-01-07T03:47:13.234Z,5.13
2023-01-07T03:49:42.051Z,4.80
2023-01-07T03:52:08.989Z,5.43
2023-01-07T03:54:36.301Z,4.53
2023-01-07T03:57:03.355Z,4.00
2023-01-07T03:59:30.598Z,4.82
2023-01-07T04:01:57.704Z,4.45
2023-01-07T04:04:25.483Z,4.25
2023-01-07T04:06:53.394Z,4.93
2023-01-07T04:09:22.156Z,4.40
2023-01-07T04:11:49.783Z,4.65
2023-01-07T04:14:16.944Z,4.68
2023-01-07T04:16:44.313Z,4.25
2023-01-07T04:19:11.406Z,4.43
2023-01-07T04:21:38.248Z,5.07
2023-01-07T04:24:06.082Z,4.50
2023-01-07T04:26:34.070Z,4.80
2023-01-07T04:29:01.577Z,4.10
2023-01-07T04:31:28.919Z,4.07
2023-01-07T04:33:55.795Z,4.78
2023-01-07T04:36:23.145Z,4.50
2023-01-07T04:38:50.469Z,3.80
2023-01-07T04:41:18.396Z,4.07
2023-01-07T04:43:45.637Z,4.07
2023-01-07T04:46:12.704Z,4.20
2023-01-07T04:48:40.244Z,3.10
2023-01-07T04:51:07.561Z,3.90
2023-01-07T04:53:34.701Z,4.28
2023-01-07T04:56:02.706Z,3.55
2023-01-07T04:58:30.267Z,4.10
2023-01-07T05:00:59.439Z,3.40
2023-01-07T05:03:28.425Z,3.03
2023-01-07T05:05:55.870Z,4.35
2023-01-07T05:08:24.093Z,3.47
2023-01-07T05:10:50.941Z,4.28
2023-01-07T05:13:20.357Z,4.38
2023-01-07T05:15:47.882Z,4.95
2023-01-07T05:18:15.591Z,3.60
2023-01-07T05:20:43.661Z,4.00
2023-01-07T05:23:11.005Z,4.15
2023-01-07T05:25:37.953Z,5.18
2023-01-07T05:28:05.345Z,4.72
2023-01-07T05:30:35.152Z,4.80
2023-01-07T05:33:07.456Z,4.20
2023-01-07T05:35:35.983Z,4.85
2023-01-07T05:38:04.655Z,4.72
2023-01-07T05:40:32.214Z,5.28
2023-01-07T05:42:59.160Z,5.10
2023-01-07T05:45:27.899Z,5.88
2023-01-07T05:47:54.942Z,5.80
2023-01-07T05:50:22.115Z,4.82
2023-01-07T05:52:51.242Z,5.50
2023-01-07T05:55:18.485Z,4.32
2023-01-07T05:57:45.546Z,5.28
2023-01-07T06:00:12.873Z,6.40
2023-01-07T06:02:40.068Z,6.63
2023-01-07T06:05:07.581Z,5.75
2023-01-07T06:07:34.528Z,6.15
2023-01-07T06:10:03.052Z,6.95
2023-01-07T06:12:30.878Z,6.25
2023-01-07T06:14:58.415Z,6.43
2023-01-07T06:17:25.219Z,6.47
2023-01-07T06:19:52.142Z,6.18
2023-01-07T06:22:19.064Z,6.43
2023-01-07T06:24:46.156Z,6.55
2023-01-07T06:27:13.053Z,6.90
2023-01-07T06:29:40.239Z,6.75
2023-01-07T06:32:07.109Z,6.80
2023-01-07T06:34:33.927Z,7.38
2023-01-07T06:37:00.816Z,6.95
2023-01-07T06:39:27.739Z,6.75
2023-01-07T06:41:54.810Z,7.07
2023-01-07T06:44:21.647Z,6.28
2023-01-07T06:46:48.375Z,7.07
2023-01-07T06:49:15.417Z,7.15
2023-01-07T06:51:42.249Z,6.25
2023-01-07T06:54:09.196Z,6.68
2023-01-07T06:56:35.909Z,5.93
2023-01-07T06:59:02.763Z,5.85
2023-01-07T07:01:29.765Z,6.47
2023-01-07T07:03:56.582Z,6.43
2023-01-07T07:06:23.396Z,6.78
2023-01-07T07:08:50.199Z,6.57
2023-01-07T07:11:17.057Z,6.38
2023-01-07T07:13:43.803Z,6.40
2023-01-07T07:16:10.637Z,6.90
2023-01-07T07:18:37.714Z,6.43
2023-01-07T07:21:04.521Z,6.18
2023-01-07T07:23:31.437Z,6.82
2023-01-07T07:25:58.259Z,5.88
2023-01-07T07:28:26.227Z,4.68
2023-01-07T07:30:53.071Z,6.63
2023-01-07T07:33:20.339Z,5.38
2023-01-07T07:35:48.141Z,5.63
2023-01-07T07:38:18.210Z,5.65
2023-01-07T07:40:45.800Z,4.78
2023-01-07T07:43:13.691Z,4.93
2023-01-07T07:45:41.823Z,5.47
2023-01-07T07:48:09.777Z,4.90
2023-01-07T07:50:36.781Z,5.68
2023-01-07T07:53:04.235Z,5.22
2023-01-07T07:55:31.659Z,5.80
2023-01-07T07:58:00.565Z,5.32
2023-01-07T08:00:27.425Z,5.30
2023-01-07T08:02:58.474Z,6.20
2023-01-07T08:05:26.659Z,5.30
2023-01-07T08:07:56.294Z,5.32
2023-01-07T08:10:23.263Z,4.68
2023-01-07T08:12:50.900Z,4.05
2023-01-07T08:15:18.490Z,5.18
2023-01-07T08:17:45.406Z,3.63
2023-01-07T08:20:13.503Z,3.80
2023-01-07T08:22:40.367Z,3.50
2023-01-07T08:25:07.428Z,2.80
2023-01-07T08:27:35.546Z,3.38
2023-01-07T08:30:02.370Z,3.92
2023-01-07T08:32:29.250Z,3.60
2023-01-07T08:34:56.382Z,3.33
2023-01-07T08:37:23.318Z,2.45
2023-01-07T08:39:50.173Z,3.85
2023-01-07T08:42:16.971Z,3.30
2023-01-07T08:44:44.193Z,3.03
2023-01-07T08:47:10.888Z,2.78
2023-01-07T08:49:37.789Z,2.15
2023-01-07T08:52:05.319Z,2.80
2023-01-07T08:54:33.306Z,2.63
2023-01-07T08:57:00.132Z,2.55
2023-01-07T08:59:27.265Z,2.33
2023-01-07T09:01:54.239Z,2.25
2023-01-07T09:04:21.097Z,1.98
2023-01-07T09:06:47.991Z,2.22
2023-01-07T09:09:16.825Z,1.63
2023-01-07T09:11:43.979Z,1.92
2023-01-07T09:14:11.166Z,1.60
2023-01-07T09:16:37.923Z,1.48
2023-01-07T09:19:04.825Z,1.17
2023-01-07T09:21:31.602Z,1.30
2023-01-07T09:23:59.635Z,1.75
2023-01-07T09:26:26.460Z,2.08
2023-01-07T09:28:53.532Z,1.17
2023-01-07T09:31:20.439Z,2.00
2023-01-07T09:33:47.168Z,1.73
2023-01-07T09:36:14.533Z,1.30
2023-01-07T09:38:41.431Z,1.42
2023-01-07T09:41:38.769Z,1.58
2023-01-07T09:44:48.022Z,1.20
2023-01-07T09:47:18.122Z,1.25
2023-01-07T09:49:48.087Z,1.60
2023-01-07T09:52:22.741Z,1.58
2023-01-07T09:54:56.697Z,1.40
2023-01-07T09:57:23.578Z,1.05
2023-01-07T09:59:50.735Z,1.33
2023-01-07T10:02:23.626Z,1.50
2023-01-07T10:05:40.319Z,1.20
2023-01-07T10:08:32.037Z,1.30
2023-01-07T10:11:01.966Z,1.48
2023-01-07T10:13:54.909Z,1.10
2023-01-07T10:16:28.513Z,1.60
2023-01-07T10:19:34.044Z,1.17
2023-01-07T10:22:06.351Z,1.40
2023-01-07T10:24:41.152Z,1.90
2023-01-07T10:27:12.965Z,1.25
2023-01-07T10:29:49.073Z,2.05
2023-01-07T10:32:18.071Z,1.77
2023-01-07T10:34:47.824Z,1.27
2023-01-07T10:37:33.463Z,1.10
2023-01-07T10:40:12.475Z,1.13
2023-01-07T10:42:55.077Z,1.88
2023-01-07T10:45:56.098Z,1.30
2023-01-07T10:48:58.803Z,1.50
2023-01-07T10:51:56.015Z,1.10
2023-01-07T10:54:34.073Z,1.65
2023-01-07T10:57:12.084Z,1.35
2023-01-07T10:59:51.137Z,1.40
2023-01-07T11:02:21.610Z,1.00
2023-01-07T11:04:48.993Z,1.20
2023-01-07T11:07:44.353Z,0.80
2023-01-07T11:10:24.051Z,0.85
2023-01-07T11:12:56.622Z,0.60
2023-01-07T11:15:35.072Z,0.55
2023-01-07T11:18:35.287Z,1.00
2023-01-07T11:21:02.269Z,0.82
2023-01-07T11:23:39.227Z,1.05
2023-01-07T11:26:28.785Z,0.52
2023-01-07T11:28:58.706Z,0.32
2023-01-07T11:31:48.679Z,0.75
2023-01-07T11:34:24.658Z,0.50
2023-01-07T11:36:51.919Z,0.90
2023-01-07T11:39:25.676Z,0.60
2023-01-07T11:42:34.392Z,1.05
2023-01-07T11:45:14.042Z,1.08
2023-01-07T11:47:52.121Z,0.80
2023-01-07T11:50:24.830Z,0.93
2023-01-07T11:53:05.993Z,1.00
2023-01-07T11:55:32.885Z,0.68
2023-01-07T11:58:28.129Z,0.60
2023-01-07T12:01:23.934Z,0.95
2023-01-07T12:03:56.812Z,0.90
2023-01-07T12:06:31.512Z,1.00
2023-01-07T12:09:24.745Z,1.23
2023-01-07T12:11:53.469Z,0.80
2023-01-07T12:14:28.084Z,0.65
2023-01-07T12:16:56.761Z,0.70
2023-01-07T12:19:39.845Z,0.73
2023-01-07T12:22:18.275Z,1.05
2023-01-07T12:25:10.170Z,0.70
2023-01-07T12:28:16.287Z,1.00
2023-01-07T12:31:07.427Z,0.90
2023-01-07T12:33:43.140Z,1.08
2023-01-07T12:36:28.818Z,0.90
2023-01-07T12:38:59.573Z,0.90
2023-01-07T12:41:34.570Z,0.75
2023-01-07T12:44:13.501Z,1.27
2023-01-07T12:46:55.311Z,1.23
2023-01-07T12:50:03.932Z,1.02
2023-01-07T12:52:43.984Z,0.80
2023-01-07T12:55:20.987Z,0.70
2023-01-07T12:58:01.219Z,0.75
2023-01-07T13:00:35.305Z,0.63
2023-01-07T13:03:17.287Z,1.00
2023-01-07T13:05:52.682Z,0.90
2023-01-07T13:08:35.372Z,1.02
2023-01-07T13:11:53.225Z,0.90
2023-01-07T13:14:38.031Z,1.00
2023-01-07T13:17:30.683Z,1.00
2023-01-07T13:19:58.055Z,1.30
2023-01-07T13:22:34.261Z,0.90
2023-01-07T13:25:28.759Z,1.20
2023-01-07T13:28:20.349Z,1.00
2023-01-07T13:31:09.058Z,1.08
2023-01-07T13:33:58.165Z,0.90
2023-01-07T13:36:35.479Z,0.85
2023-01-07T13:39:14.554Z,0.65
2023-01-07T13:41:53.537Z,0.82
2023-01-07T13:44:36.372Z,0.60
2023-01-07T13:47:05.696Z,1.08
2023-01-07T13:49:33.953Z,1.20
2023-01-07T13:52:27.459Z,0.77
2023-01-07T13:55:01.967Z,1.15
2023-01-07T13:57:31.672Z,1.17
2023-01-07T14:00:01.937Z,1.13
2023-01-07T14:02:58.157Z,0.95
2023-01-07T14:05:28.301Z,0.82
2023-01-07T14:08:01.417Z,0.77
2023-01-07T14:10:36.209Z,1.30
2023-01-07T14:13:35.824Z,0.98
2023-01-07T14:16:11.734Z,1.00
2023-01-07T14:18:54.392Z,1.40
2023-01-07T14:21:51.833Z,1.40
2023-01-07T14:24:51.942Z,0.82
2023-01-07T14:27:40.071Z,1.27
2023-01-07T14:30:21.954Z,1.30
2023-01-07T14:32:58.893Z,1.27
2023-01-07T14:35:32.024Z,0.70
2023-01-07T14:37:59.059Z,1.13
2023-01-07T14:40:34.505Z,1.08
2023-01-07T14:43:03.306Z,1.20
2023-01-07T14:45:45.003Z,1.00
2023-01-07T14:48:11.751Z,1.38
2023-01-07T14:51:25.309Z,0.95
2023-01-07T14:54:18.419Z,1.25
2023-01-07T14:57:15.713Z,1.10
2023-01-07T14:59:52.588Z,0.77
2023-01-07T15:03:01.519Z,1.80
2023-01-07T15:05:37.518Z,1.75
2023-01-07T15:08:30.210Z,1.50
2023-01-07T15:11:18.803Z,2.67
2023-01-07T15:14:22.536Z,2.78
2023-01-07T15:16:53.517Z,2.00
2023-01-07T15:19:21.955Z,1.38
2023-01-07T15:22:15.371Z,1.70
2023-01-07T15:25:18.292Z,1.50
2023-01-07T15:28:08.254Z,1.80
2023-01-07T15:30:44.374Z,1.75
2023-01-07T15:33:35.075Z,1.98
2023-01-07T15:36:05.521Z,2.25
2023-01-07T15:38:57.802Z,1.70
2023-01-07T15:41:35.605Z,2.05
2023-01-07T15:46:32.901Z,1.50
2023-01-07T15:49:09.268Z,1.65
2023-01-07T15:51:39.870Z,2.13
2023-01-07T15:54:23.025Z,2.50
2023-01-07T15:56:53.303Z,2.20
2023-01-07T15:59:27.324Z,2.22
2023-01-07T16:02:23.472Z,2.38
2023-01-07T16:04:52.950Z,1.60
2023-01-07T16:07:26.179Z,2.15
2023-01-07T16:09:53.792Z,1.63
2023-01-07T16:12:29.293Z,2.22
2023-01-07T16:14:56.546Z,2.42
2023-01-07T16:17:23.431Z,2.25
2023-01-07T16:19:50.453Z,1.88
2023-01-07T16:22:24.267Z,2.30
2023-01-07T16:24:53.889Z,2.65
2023-01-07T16:27:28.501Z,1.50
2023-01-07T16:29:58.312Z,1.80
2023-01-07T16:32:26.964Z,1.33
2023-01-07T16:34:56.138Z,1.85
2023-01-07T16:37:23.634Z,1.88
2023-01-07T16:39:52.049Z,1.80
2023-01-07T16:42:23.429Z,2.00
2023-01-07T16:44:55.816Z,1.75
2023-01-07T16:47:26.506Z,2.35
2023-01-07T16:49:58.526Z,4.18
2023-01-07T16:52:35.425Z,3.97
2023-01-07T16:55:02.258Z,4.90
2023-01-07T16:57:42.278Z,3.22
2023-01-07T17:00:18.402Z,2.33
2023-01-07T17:02:53.467Z,4.57
2023-01-07T17:05:20.141Z,1.88
2023-01-07T17:07:51.278Z,6.70
2023-01-07T17:10:34.643Z,3.80
2023-01-07T17:13:06.577Z,2.45
2023-01-07T17:15:33.593Z,2.28
2023-01-07T17:18:12.457Z,2.28
2023-01-07T17:20:51.192Z,9.02
2023-01-07T17:23:27.196Z,8.95
2023-01-07T17:26:07.937Z,4.65
2023-01-07T17:28:55.213Z,3.17
2023-01-07T17:31:23.789Z,1.98
2023-01-07T17:33:53.158Z,3.00
2023-01-07T17:36:26.446Z,2.33
2023-01-07T17:38:53.338Z,2.35
2023-01-07T17:41:40.487Z,3.25
2023-01-07T17:44:12.497Z,2.50
2023-01-07T17:46:40.524Z,3.03
2023-01-07T17:49:10.175Z,2.50
2023-01-07T17:51:39.801Z,3.45
2023-01-07T17:54:21.534Z,1.45
2023-01-07T17:56:48.951Z,3.45
2023-01-07T17:59:19.526Z,3.28
2023-01-07T18:01:48.150Z,3.17
2023-01-07T18:04:17.874Z,2.40
2023-01-07T18:06:45.317Z,3.00
2023-01-07T18:09:13.709Z,1.95
2023-01-07T18:12:03.738Z,2.38
2023-01-07T18:14:32.570Z,3.35
2023-01-07T18:16:59.395Z,2.63
2023-01-07T18:19:26.688Z,2.92
2023-01-07T18:21:53.605Z,2.90
2023-01-07T18:24:21.664Z,6.85
2023-01-07T18:26:48.629Z,3.58
2023-01-07T18:29:16.540Z,3.20
2023-01-07T18:31:44.790Z,3.63
2023-01-07T18:34:15.697Z,6.78
2023-01-07T18:36:42.995Z,4.50
2023-01-07T18:39:19.016Z,3.63
2023-01-07T18:41:50.287Z,2.72
2023-01-07T18:44:22.117Z,4.00
2023-01-07T18:46:49.173Z,3.55
2023-01-07T18:49:16.324Z,3.40
2023-01-07T18:51:47.593Z,3.35
2023-01-07T18:54:16.207Z,2.97
2023-01-07T18:56:46.057Z,3.55
2023-01-07T18:59:13.793Z,4.10
2023-01-07T19:01:41.760Z,3.65
2023-01-07T19:04:08.996Z,2.58
2023-01-07T19:06:35.738Z,2.53
2023-01-07T19:09:02.652Z,2.63
2023-01-07T19:11:29.827Z,2.90
2023-01-07T19:13:58.167Z,2.60
2023-01-07T19:16:25.110Z,2.60
2023-01-07T19:18:54.295Z,2.53
2023-01-07T19:21:21.624Z,2.42
2023-01-07T19:23:49.485Z,3.28
2023-01-07T19:26:16.200Z,2.85
2023-01-07T19:28:43.633Z,2.35
2023-01-07T19:31:11.075Z,4.40
2023-01-07T19:33:37.928Z,3.83
2023-01-07T19:36:07.812Z,3.55
2023-01-07T19:38:41.118Z,3.33
2023-01-07T19:41:12.168Z,3.90
2023-01-07T19:43:39.083Z,3.53
2023-01-07T19:46:07.911Z,3.13
2023-01-07T19:48:35.064Z,3.42
2023-01-07T19:51:03.863Z,2.20
2023-01-07T19:53:32.208Z,3.40
2023-01-07T19:56:10.693Z,3.40
2023-01-07T19:58:38.052Z,3.58
2023-01-07T20:01:07.656Z,3.25
2023-01-07T20:03:35.965Z,3.05
2023-01-07T20:06:11.376Z,3.10
2023-01-07T20:08:39.175Z,3.75
2023-01-07T20:11:06.951Z,3.10
2023-01-07T20:13:35.574Z,3.08
2023-01-07T20:16:05.793Z,3.25
2023-01-07T20:18:37.976Z,3.63
2023-01-07T20:21:05.301Z,3.45
2023-01-07T20:23:36.168Z,3.50
2023-01-07T20:26:06.118Z,3.17
2023-01-07T20:28:33.961Z,3.72
2023-01-07T20:31:04.124Z,3.20
2023-01-07T20:33:31.237Z,3.70
2023-01-07T20:36:04.306Z,3.88
2023-01-07T20:38:32.907Z,3.60
2023-01-07T20:40:59.785Z,3.78
2023-01-07T20:43:31.310Z,4.57
2023-01-07T20:46:04.017Z,3.45
2023-01-07T20:48:33.639Z,5.90
2023-01-07T20:51:06.684Z,4.13
2023-01-07T20:53:34.832Z,4.75
2023-01-07T20:56:02.521Z,4.43
2023-01-07T20:58:34.715Z,4.05
2023-01-07T21:01:10.453Z,4.07
2023-01-07T21:03:39.025Z,4.28
2023-01-07T21:06:09.811Z,4.07
2023-01-07T21:08:37.958Z,4.18
2023-01-07T21:11:14.566Z,3.47
2023-01-07T21:13:42.210Z,3.67
2023-01-07T21:16:10.226Z,3.90
2023-01-07T21:18:37.175Z,3.15
2023-01-07T21:21:14.038Z,3.45
2023-01-07T21:23:42.294Z,3.72
2023-01-07T21:26:10.280Z,3.70
2023-01-07T21:28:40.820Z,3.65
2023-01-07T21:31:14.115Z,3.47
2023-01-07T21:33:41.321Z,3.00
2023-01-07T21:36:14.390Z,3.63
2023-01-07T21:38:41.459Z,3.22
2023-01-07T21:41:15.392Z,3.45
2023-01-07T21:43:43.264Z,2.35
2023-01-07T21:46:11.042Z,3.63
2023-01-07T21:48:40.430Z,3.35
2023-01-07T21:51:12.936Z,3.60
2023-01-07T21:53:39.526Z,3.30
2023-01-07T21:56:12.311Z,3.45
2023-01-07T21:58:38.956Z,2.30
2023-01-07T22:01:06.601Z,2.92
2023-01-07T22:03:37.465Z,2.33
2023-01-07T22:06:13.053Z,3.05
2023-01-07T22:08:39.820Z,2.65
2023-01-07T22:11:06.731Z,3.00
2023-01-07T22:13:33.354Z,3.45
2023-01-07T22:16:04.733Z,2.95
2023-01-07T22:18:31.573Z,2.85
2023-01-07T22:20:58.302Z,2.95
2023-01-07T22:23:24.965Z,3.30
2023-01-07T22:25:53.389Z,3.30
2023-01-07T22:28:23.412Z,2.92
2023-01-07T22:30:55.312Z,2.33
2023-01-07T22:33:22.781Z,2.10
2023-01-07T22:35:51.214Z,2.20
2023-01-07T22:38:22.092Z,2.20
2023-01-07T22:40:49.156Z,2.67
2023-01-07T22:43:18.463Z,2.42
2023-01-07T22:45:51.134Z,3.45
2023-01-07T22:48:23.898Z,2.05
2023-01-07T22:50:55.094Z,1.95
2023-01-07T22:53:22.337Z,1.83
2023-01-07T22:55:49.496Z,2.40
2023-01-07T22:58:17.975Z,2.22
2023-01-07T23:00:50.612Z,1.75
2023-01-07T23:03:21.979Z,1.77
2023-01-07T23:05:49.495Z,2.80
2023-01-07T23:08:16.940Z,2.00
2023-01-07T23:10:44.403Z,2.30
2023-01-07T23:13:11.558Z,1.90
2023-01-07T23:15:38.960Z,1.73
2023-01-07T23:18:07.379Z,2.40
2023-01-07T23:20:37.462Z,2.30
2023-01-07T23:23:04.627Z,1.48
2023-01-07T23:25:31.659Z,2.33
2023-01-07T23:27:59.683Z,2.55
2023-01-07T23:30:26.336Z,1.98
2023-01-07T23:32:52.952Z,2.83
2023-01-07T23:35:19.700Z,2.05
2023-01-07T23:37:46.921Z,1.92
2023-01-07T23:40:13.714Z,1.80
2023-01-07T23:42:49.279Z,2.92
2023-01-07T23:45:16.625Z,2.35
2023-01-07T23:47:43.933Z,1.73
2023-01-07T23:50:10.596Z,1.80
2023-01-07T23:52:37.645Z,2.53
2023-01-07T23:55:06.696Z,2.17
2023-01-07T23:57:33.398Z,2.03
